sensor_id;sensor_type;location;lat;lon;timestamp;pressure;altitude;pressure_sealevel;temperature;humidity
17505;BME280;8870;50.950;11.762;2023-05-19T00:01:13;99208.91;;;9.72;100.00
17505;BME280;8870;50.950;11.762;2023-05-19T00:06:35;99205.53;;;9.70;100.00
17505;BME280;8870;50.950;11.762;2023-05-19T00:12:09;99198.47;;;9.69;100.00
17505;BME280;8870;50.950;11.762;2023-05-19T00:17:28;99198.25;;;9.61;100.00
17505;BME280;8870;50.950;11.762;2023-05-19T00:23:05;99189.31;;;9.50;100.00
17505;BME280;8870;50.950;11.762;2023-05-19T00:28:24;99185.47;;;9.43;100.00
17505;BME280;8870;50.950;11.762;2023-05-19T00:33:54;99176.09;;;9.37;100.00
17505;BME280;8870;50.950;11.762;2023-05-19T00:39:28;99181.03;;;9.32;100.00
17505;BME280;8870;50.950;11.762;2023-05-19T00:44:47;99178.47;;;9.31;100.00
17505;BME280;8870;50.950;11.762;2023-05-19T00:50:19;99176.31;;;9.24;100.00
17505;BME280;8870;50.950;11.762;2023-05-19T00:55:41;99171.63;;;9.17;100.00
17505;BME280;8870;50.950;11.762;2023-05-19T01:01:17;99167.63;;;9.11;100.00
17505;BME280;8870;50.950;11.762;2023-05-19T01:06:28;99171.56;;;9.07;100.00
17505;BME280;8870;50.950;11.762;2023-05-19T01:12:05;99161.94;;;9.04;100.00
17505;BME280;8870;50.950;11.762;2023-05-19T01:17:29;99170.00;;;9.04;100.00
17505;BME280;8870;50.950;11.762;2023-05-19T01:23:17;99159.44;;;9.13;100.00
17505;BME280;8870;50.950;11.762;2023-05-19T01:29:10;99158.94;;;9.29;100.00
17505;BME280;8870;50.950;11.762;2023-05-19T01:34:48;99165.09;;;9.40;100.00
17505;BME280;8870;50.950;11.762;2023-05-19T01:40:09;99159.00;;;9.48;100.00
17505;BME280;8870;50.950;11.762;2023-05-19T01:45:41;99163.28;;;9.61;100.00
17505;BME280;8870;50.950;11.762;2023-05-19T01:51:04;99159.50;;;9.63;100.00
17505;BME280;8870;50.950;11.762;2023-05-19T01:56:41;99170.13;;;9.65;100.00
17505;BME280;8870;50.950;11.762;2023-05-19T02:02:07;99154.22;;;9.62;100.00
17505;BME280;8870;50.950;11.762;2023-05-19T02:07:50;99153.50;;;9.60;100.00
17505;BME280;8870;50.950;11.762;2023-05-19T02:13:12;99149.13;;;9.59;100.00
17505;BME280;8870;50.950;11.762;2023-05-19T02:18:44;99157.59;;;9.54;100.00
17505;BME280;8870;50.950;11.762;2023-05-19T02:24:12;99149.09;;;9.49;100.00
17505;BME280;8870;50.950;11.762;2023-05-19T02:29:43;99153.91;;;9.45;100.00
17505;BME280;8870;50.950;11.762;2023-05-19T02:35:03;99150.34;;;9.35;100.00
17505;BME280;8870;50.950;11.762;2023-05-19T02:40:36;99152.00;;;9.26;100.00
17505;BME280;8870;50.950;11.762;2023-05-19T02:45:55;99147.53;;;9.15;100.00
17505;BME280;8870;50.950;11.762;2023-05-19T02:51:25;99142.16;;;9.05;100.00
17505;BME280;8870;50.950;11.762;2023-05-19T02:56:46;99140.13;;;8.98;100.00
17505;BME280;8870;50.950;11.762;2023-05-19T03:02:18;99137.94;;;8.91;100.00
17505;BME280;8870;50.950;11.762;2023-05-19T03:07:36;99139.72;;;8.81;100.00
17505;BME280;8870;50.950;11.762;2023-05-19T03:13:11;99136.28;;;8.69;100.00
17505;BME280;8870;50.950;11.762;2023-05-19T03:18:31;99142.56;;;8.58;100.00
17505;BME280;8870;50.950;11.762;2023-05-19T03:24:03;99143.94;;;8.53;100.00
17505;BME280;8870;50.950;11.762;2023-05-19T03:29:38;99139.91;;;8.47;100.00
17505;BME280;8870;50.950;11.762;2023-05-19T03:34:57;99134.06;;;8.42;100.00
17505;BME280;8870;50.950;11.762;2023-05-19T03:40:29;99139.56;;;8.40;100.00
17505;BME280;8870;50.950;11.762;2023-05-19T03:45:49;99144.09;;;8.40;100.00
17505;BME280;8870;50.950;11.762;2023-05-19T03:51:33;99148.50;;;8.41;100.00
17505;BME280;8870;50.950;11.762;2023-05-19T03:57:08;99150.16;;;8.42;100.00
17505;BME280;8870;50.950;11.762;2023-05-19T04:02:42;99148.56;;;8.51;100.00
17505;BME280;8870;50.950;11.762;2023-05-19T04:08:01;99150.63;;;8.58;100.00
17505;BME280;8870;50.950;11.762;2023-05-19T04:13:32;99155.34;;;8.66;100.00
17505;BME280;8870;50.950;11.762;2023-05-19T04:18:55;99153.97;;;8.72;100.00
17505;BME280;8870;50.950;11.762;2023-05-19T04:24:28;99156.09;;;8.78;100.00
17505;BME280;8870;50.950;11.762;2023-05-19T04:29:47;99155.84;;;8.81;100.00
17505;BME280;8870;50.950;11.762;2023-05-19T04:35:22;99151.38;;;8.91;100.00
17505;BME280;8870;50.950;11.762;2023-05-19T04:40:43;99161.72;;;8.96;100.00
17505;BME280;8870;50.950;11.762;2023-05-19T04:46:14;99168.16;;;9.05;100.00
17505;BME280;8870;50.950;11.762;2023-05-19T04:51:49;99163.25;;;9.10;100.00
17505;BME280;8870;50.950;11.762;2023-05-19T04:57:09;99164.94;;;9.11;100.00
17505;BME280;8870;50.950;11.762;2023-05-19T05:02:40;99162.84;;;9.15;100.00
17505;BME280;8870;50.950;11.762;2023-05-19T05:08:02;99168.66;;;9.20;100.00
17505;BME280;8870;50.950;11.762;2023-05-19T05:13:36;99168.97;;;9.27;100.00
17505;BME280;8870;50.950;11.762;2023-05-19T05:18:55;99171.72;;;9.36;100.00
17505;BME280;8870;50.950;11.762;2023-05-19T05:24:30;99164.38;;;9.48;100.00
17505;BME280;8870;50.950;11.762;2023-05-19T05:30:02;99169.53;;;9.61;100.00
17505;BME280;8870;50.950;11.762;2023-05-19T05:35:22;99171.25;;;9.72;100.00
17505;BME280;8870;50.950;11.762;2023-05-19T05:40:57;99171.03;;;9.85;100.00
17505;BME280;8870;50.950;11.762;2023-05-19T05:46:17;99171.75;;;9.97;100.00
17505;BME280;8870;50.950;11.762;2023-05-19T05:51:50;99173.47;;;10.08;100.00
17505;BME280;8870;50.950;11.762;2023-05-19T05:57:22;99174.06;;;10.21;100.00
17505;BME280;8870;50.950;11.762;2023-05-19T06:02:56;99165.69;;;10.34;100.00
17505;BME280;8870;50.950;11.762;2023-05-19T06:08:14;99166.56;;;10.44;100.00
17505;BME280;8870;50.950;11.762;2023-05-19T06:13:48;99176.91;;;10.59;100.00
17505;BME280;8870;50.950;11.762;2023-05-19T06:19:42;99172.91;;;10.83;100.00
17505;BME280;8870;50.950;11.762;2023-05-19T06:25:14;99177.28;;;11.03;100.00
17505;BME280;8870;50.950;11.762;2023-05-19T06:30:34;99180.78;;;11.23;100.00
17505;BME280;8870;50.950;11.762;2023-05-19T06:36:18;99181.00;;;11.40;100.00
17505;BME280;8870;50.950;11.762;2023-05-19T06:41:50;99178.97;;;11.52;100.00
17505;BME280;8870;50.950;11.762;2023-05-19T06:47:34;99171.38;;;11.65;100.00
17505;BME280;8870;50.950;11.762;2023-05-19T06:53:06;99173.00;;;11.76;100.00
17505;BME280;8870;50.950;11.762;2023-05-19T06:58:26;99171.78;;;11.88;100.00
17505;BME280;8870;50.950;11.762;2023-05-19T07:03:59;99170.72;;;12.09;100.00
17505;BME280;8870;50.950;11.762;2023-05-19T07:09:18;99162.22;;;12.22;100.00
17505;BME280;8870;50.950;11.762;2023-05-19T07:14:50;99158.84;;;12.38;100.00
17505;BME280;8870;50.950;11.762;2023-05-19T07:20:12;99159.81;;;12.55;100.00
17505;BME280;8870;50.950;11.762;2023-05-19T07:25:43;99156.28;;;12.73;100.00
17505;BME280;8870;50.950;11.762;2023-05-19T07:31:01;99161.63;;;12.91;100.00
17505;BME280;8870;50.950;11.762;2023-05-19T07:36:35;99163.28;;;13.10;100.00
17505;BME280;8870;50.950;11.762;2023-05-19T07:42:08;99157.34;;;13.33;100.00
17505;BME280;8870;50.950;11.762;2023-05-19T07:47:28;99151.22;;;13.57;100.00
17505;BME280;8870;50.950;11.762;2023-05-19T07:53:02;99145.50;;;13.68;100.00
17505;BME280;8870;50.950;11.762;2023-05-19T07:58:21;99148.41;;;13.75;100.00
17505;BME280;8870;50.950;11.762;2023-05-19T08:03:53;99140.97;;;13.77;100.00
17505;BME280;8870;50.950;11.762;2023-05-19T08:09:14;99136.63;;;14.01;100.00
17505;BME280;8870;50.950;11.762;2023-05-19T08:14:46;99133.59;;;14.12;100.00
17505;BME280;8870;50.950;11.762;2023-05-19T08:20:08;99142.25;;;14.24;100.00
17505;BME280;8870;50.950;11.762;2023-05-19T08:25:44;99138.38;;;14.27;100.00
17505;BME280;8870;50.950;11.762;2023-05-19T08:31:02;99128.03;;;14.30;100.00
17505;BME280;8870;50.950;11.762;2023-05-19T08:36:34;99132.59;;;14.22;100.00
17505;BME280;8870;50.950;11.762;2023-05-19T08:42:08;99132.59;;;14.22;100.00
17505;BME280;8870;50.950;11.762;2023-05-19T08:47:34;99139.03;;;14.29;100.00
17505;BME280;8870;50.950;11.762;2023-05-19T08:53:10;99135.50;;;14.53;100.00
17505;BME280;8870;50.950;11.762;2023-05-19T08:58:44;99107.22;;;14.72;100.00
17505;BME280;8870;50.950;11.762;2023-05-19T09:04:21;99112.97;;;14.86;100.00
17505;BME280;8870;50.950;11.762;2023-05-19T09:09:42;99099.03;;;15.05;100.00
17505;BME280;8870;50.950;11.762;2023-05-19T09:15:17;99083.75;;;15.04;100.00
17505;BME280;8870;50.950;11.762;2023-05-19T09:20:36;99090.16;;;15.20;100.00
17505;BME280;8870;50.950;11.762;2023-05-19T09:26:10;99081.31;;;15.26;100.00
17505;BME280;8870;50.950;11.762;2023-05-19T09:31:33;99073.78;;;15.45;100.00
17505;BME280;8870;50.950;11.762;2023-05-19T09:37:06;99084.06;;;15.57;94.03
17505;BME280;8870;50.950;11.762;2023-05-19T09:42:40;99078.03;;;15.70;100.00
17505;BME280;8870;50.950;11.762;2023-05-19T09:48:02;99084.56;;;15.93;76.95
17505;BME280;8870;50.950;11.762;2023-05-19T09:53:35;99079.25;;;15.99;71.30
17505;BME280;8870;50.950;11.762;2023-05-19T09:58:54;99083.44;;;16.10;84.65
17505;BME280;8870;50.950;11.762;2023-05-19T10:04:30;99078.97;;;16.17;80.63
17505;BME280;8870;50.950;11.762;2023-05-19T10:09:49;99083.94;;;16.14;76.25
17505;BME280;8870;50.950;11.762;2023-05-19T10:15:21;99060.97;;;16.40;88.43
17505;BME280;8870;50.950;11.762;2023-05-19T10:20:49;99056.16;;;16.42;87.76
17505;BME280;8870;50.950;11.762;2023-05-19T10:26:22;99061.34;;;16.52;83.45
17505;BME280;8870;50.950;11.762;2023-05-19T10:31:44;99062.13;;;16.60;82.44
17505;BME280;8870;50.950;11.762;2023-05-19T10:37:26;99056.97;;;16.66;74.94
17505;BME280;8870;50.950;11.762;2023-05-19T10:43:17;99048.31;;;16.62;78.48
17505;BME280;8870;50.950;11.762;2023-05-19T10:48:43;99045.81;;;16.60;75.76
17505;BME280;8870;50.950;11.762;2023-05-19T10:54:38;99050.50;;;16.67;76.02
17505;BME280;8870;50.950;11.762;2023-05-19T10:59:58;99037.28;;;16.63;71.99
17505;BME280;8870;50.950;11.762;2023-05-19T11:05:35;99035.50;;;16.71;64.01
17505;BME280;8870;50.950;11.762;2023-05-19T11:10:56;99028.47;;;16.76;66.07
17505;BME280;8870;50.950;11.762;2023-05-19T11:16:27;99040.78;;;16.87;63.02
17505;BME280;8870;50.950;11.762;2023-05-19T11:21:47;99030.16;;;16.92;65.24
17505;BME280;8870;50.950;11.762;2023-05-19T11:27:27;99031.97;;;17.15;69.38
17505;BME280;8870;50.950;11.762;2023-05-19T11:32:46;99016.31;;;17.02;69.06
17505;BME280;8870;50.950;11.762;2023-05-19T11:38:18;99022.00;;;16.92;68.33
17505;BME280;8870;50.950;11.762;2023-05-19T11:43:40;99021.28;;;16.99;76.65
17505;BME280;8870;50.950;11.762;2023-05-19T11:49:12;99011.88;;;17.01;75.16
17505;BME280;8870;50.950;11.762;2023-05-19T11:54:32;99016.56;;;17.22;75.58
17505;BME280;8870;50.950;11.762;2023-05-19T12:00:07;99006.75;;;17.43;77.93
17505;BME280;8870;50.950;11.762;2023-05-19T12:05:27;99004.41;;;17.40;75.21
17505;BME280;8870;50.950;11.762;2023-05-19T12:11:01;99008.59;;;17.58;76.28
17505;BME280;8870;50.950;11.762;2023-05-19T12:16:30;98999.06;;;17.90;70.23
17505;BME280;8870;50.950;11.762;2023-05-19T12:22:05;98996.84;;;18.15;71.77
17505;BME280;8870;50.950;11.762;2023-05-19T12:27:24;98999.63;;;18.51;69.55
17505;BME280;8870;50.950;11.762;2023-05-19T12:33:00;98998.72;;;18.72;68.53
17505;BME280;8870;50.950;11.762;2023-05-19T12:38:20;98984.09;;;18.86;69.56
17505;BME280;8870;50.950;11.762;2023-05-19T12:43:51;98978.50;;;18.94;65.81
17505;BME280;8870;50.950;11.762;2023-05-19T12:49:12;98972.75;;;18.83;65.38
17505;BME280;8870;50.950;11.762;2023-05-19T12:54:44;98963.69;;;19.11;64.08
17505;BME280;8870;50.950;11.762;2023-05-19T13:00:05;98969.19;;;19.24;63.72
17505;BME280;8870;50.950;11.762;2023-05-19T13:05:42;98960.38;;;19.35;55.93
17505;BME280;8870;50.950;11.762;2023-05-19T13:11:01;98960.47;;;19.62;57.73
17505;BME280;8870;50.950;11.762;2023-05-19T13:16:32;98954.66;;;19.92;54.95
17505;BME280;8870;50.950;11.762;2023-05-19T13:21:53;98968.97;;;20.01;54.00
17505;BME280;8870;50.950;11.762;2023-05-19T13:27:25;98958.88;;;20.15;50.86
17505;BME280;8870;50.950;11.762;2023-05-19T13:32:43;98960.13;;;20.19;52.30
17505;BME280;8870;50.950;11.762;2023-05-19T13:38:18;98953.59;;;20.33;51.13
17505;BME280;8870;50.950;11.762;2023-05-19T13:43:36;98951.00;;;20.66;51.38
17505;BME280;8870;50.950;11.762;2023-05-19T13:49:08;98947.06;;;20.35;50.10
17505;BME280;8870;50.950;11.762;2023-05-19T13:54:29;98938.41;;;20.58;51.52
17505;BME280;8870;50.950;11.762;2023-05-19T14:00:00;98950.38;;;20.84;51.06
17505;BME280;8870;50.950;11.762;2023-05-19T14:05:19;98936.06;;;21.34;49.82
17505;BME280;8870;50.950;11.762;2023-05-19T14:10:54;98933.47;;;21.00;48.75
17505;BME280;8870;50.950;11.762;2023-05-19T14:16:13;98945.13;;;20.75;51.07
17505;BME280;8870;50.950;11.762;2023-05-19T14:21:48;98941.16;;;20.51;49.22
17505;BME280;8870;50.950;11.762;2023-05-19T14:27:10;98941.59;;;20.35;50.25
17505;BME280;8870;50.950;11.762;2023-05-19T14:32:41;98931.09;;;19.91;52.31
17505;BME280;8870;50.950;11.762;2023-05-19T14:37:59;98931.03;;;19.64;53.02
17505;BME280;8870;50.950;11.762;2023-05-19T14:43:34;98928.06;;;19.39;55.81
17505;BME280;8870;50.950;11.762;2023-05-19T14:48:54;98935.34;;;19.25;56.26
17505;BME280;8870;50.950;11.762;2023-05-19T14:54:27;98943.94;;;19.15;56.73
17505;BME280;8870;50.950;11.762;2023-05-19T14:59:48;98930.47;;;19.14;58.33
17505;BME280;8870;50.950;11.762;2023-05-19T15:05:19;98945.69;;;19.36;59.74
17505;BME280;8870;50.950;11.762;2023-05-19T15:10:38;98941.97;;;19.64;58.84
17505;BME280;8870;50.950;11.762;2023-05-19T15:16:12;98940.25;;;19.43;59.29
17505;BME280;8870;50.950;11.762;2023-05-19T15:21:30;98935.09;;;19.95;60.87
17505;BME280;8870;50.950;11.762;2023-05-19T15:27:02;98931.94;;;20.25;59.30
17505;BME280;8870;50.950;11.762;2023-05-19T15:32:37;98927.69;;;20.50;58.33
17505;BME280;8870;50.950;11.762;2023-05-19T15:38:02;98928.91;;;20.67;60.37
17505;BME280;8870;50.950;11.762;2023-05-19T15:43:34;98935.31;;;20.34;60.87
17505;BME280;8870;50.950;11.762;2023-05-19T15:48:55;98926.06;;;20.22;61.52
17505;BME280;8870;50.950;11.762;2023-05-19T15:54:27;98912.56;;;19.73;63.23
17505;BME280;8870;50.950;11.762;2023-05-19T15:59:58;98924.25;;;19.47;65.13
17505;BME280;8870;50.950;11.762;2023-05-19T16:05:19;98932.44;;;19.27;66.53
17505;BME280;8870;50.950;11.762;2023-05-19T16:10:50;98926.31;;;19.18;70.15
17505;BME280;8870;50.950;11.762;2023-05-19T16:16:09;98923.97;;;19.15;69.55
17505;BME280;8870;50.950;11.762;2023-05-19T16:21:44;98923.38;;;19.26;71.43
17505;BME280;8870;50.950;11.762;2023-05-19T16:27:03;98913.81;;;18.95;72.77
17505;BME280;8870;50.950;11.762;2023-05-19T16:32:34;98920.91;;;18.89;73.76
17505;BME280;8870;50.950;11.762;2023-05-19T16:38:02;98922.97;;;18.45;75.87
17505;BME280;8870;50.950;11.762;2023-05-19T16:43:33;98927.03;;;18.21;83.13
17505;BME280;8870;50.950;11.762;2023-05-19T16:48:51;98940.06;;;17.97;86.83
17505;BME280;8870;50.950;11.762;2023-05-19T16:54:25;98935.75;;;17.66;89.83
17505;BME280;8870;50.950;11.762;2023-05-19T16:59:43;98934.63;;;17.39;94.10
17505;BME280;8870;50.950;11.762;2023-05-19T17:05:15;98928.13;;;17.18;99.96
17505;BME280;8870;50.950;11.762;2023-05-19T17:10:36;98922.53;;;17.05;100.00
17505;BME280;8870;50.950;11.762;2023-05-19T17:16:08;98917.66;;;16.85;100.00
17505;BME280;8870;50.950;11.762;2023-05-19T17:21:26;98926.66;;;16.71;100.00
17505;BME280;8870;50.950;11.762;2023-05-19T17:27:00;98916.81;;;16.55;100.00
17505;BME280;8870;50.950;11.762;2023-05-19T17:32:18;98923.75;;;16.42;100.00
17505;BME280;8870;50.950;11.762;2023-05-19T17:37:56;98929.00;;;16.29;100.00
17505;BME280;8870;50.950;11.762;2023-05-19T17:43:31;98935.34;;;16.21;100.00
17505;BME280;8870;50.950;11.762;2023-05-19T17:48:49;98934.59;;;16.12;100.00
17505;BME280;8870;50.950;11.762;2023-05-19T17:54:23;98947.22;;;16.05;100.00
17505;BME280;8870;50.950;11.762;2023-05-19T17:59:46;98937.00;;;15.92;100.00
17505;BME280;8870;50.950;11.762;2023-05-19T18:05:19;98924.84;;;15.80;100.00
17505;BME280;8870;50.950;11.762;2023-05-19T18:10:39;98927.59;;;15.71;100.00
17505;BME280;8870;50.950;11.762;2023-05-19T18:16:15;98936.03;;;15.62;100.00
17505;BME280;8870;50.950;11.762;2023-05-19T18:21:33;98924.72;;;15.50;100.00
17505;BME280;8870;50.950;11.762;2023-05-19T18:27:07;98927.84;;;15.38;100.00
17505;BME280;8870;50.950;11.762;2023-05-19T18:32:28;98918.44;;;15.26;100.00
17505;BME280;8870;50.950;11.762;2023-05-19T18:37:59;98920.59;;;15.07;100.00
17505;BME280;8870;50.950;11.762;2023-05-19T18:43:31;98933.03;;;14.93;100.00
17505;BME280;8870;50.950;11.762;2023-05-19T18:48:52;98917.66;;;14.77;100.00
17505;BME280;8870;50.950;11.762;2023-05-19T18:54:19;98926.53;;;14.63;100.00
17505;BME280;8870;50.950;11.762;2023-05-19T18:59:45;98929.97;;;14.48;100.00
17505;BME280;8870;50.950;11.762;2023-05-19T19:05:07;98933.19;;;14.36;100.00
17505;BME280;8870;50.950;11.762;2023-05-19T19:10:38;98938.50;;;14.21;100.00
17505;BME280;8870;50.950;11.762;2023-05-19T19:15:56;98951.06;;;14.05;100.00
17505;BME280;8870;50.950;11.762;2023-05-19T19:21:31;98945.13;;;13.93;100.00
17505;BME280;8870;50.950;11.762;2023-05-19T19:26:49;98947.69;;;13.78;100.00
17505;BME280;8870;50.950;11.762;2023-05-19T19:32:20;98951.56;;;13.67;100.00
17505;BME280;8870;50.950;11.762;2023-05-19T19:37:42;98957.28;;;13.56;100.00
17505;BME280;8870;50.950;11.762;2023-05-19T19:43:14;98965.91;;;13.43;100.00
17505;BME280;8870;50.950;11.762;2023-05-19T19:48:32;98968.03;;;13.31;100.00
17505;BME280;8870;50.950;11.762;2023-05-19T19:54:07;98976.31;;;13.21;100.00
17505;BME280;8870;50.950;11.762;2023-05-19T19:59:25;98974.75;;;13.10;100.00
17505;BME280;8870;50.950;11.762;2023-05-19T20:04:59;98974.88;;;13.01;100.00
17505;BME280;8870;50.950;11.762;2023-05-19T20:10:21;98980.28;;;12.92;100.00
17505;BME280;8870;50.950;11.762;2023-05-19T20:15:52;98981.75;;;12.87;100.00
17505;BME280;8870;50.950;11.762;2023-05-19T20:21:10;98990.16;;;12.75;100.00
17505;BME280;8870;50.950;11.762;2023-05-19T20:26:44;98985.06;;;12.72;100.00
17505;BME280;8870;50.950;11.762;2023-05-19T20:32:02;98984.53;;;12.60;100.00
17505;BME280;8870;50.950;11.762;2023-05-19T20:37:33;98984.13;;;12.55;100.00
17505;BME280;8870;50.950;11.762;2023-05-19T20:43:12;98984.28;;;12.45;100.00
17505;BME280;8870;50.950;11.762;2023-05-19T20:48:32;98991.47;;;12.37;100.00
17505;BME280;8870;50.950;11.762;2023-05-19T20:54:03;98990.09;;;12.32;100.00
17505;BME280;8870;50.950;11.762;2023-05-19T20:59:25;98991.03;;;12.23;100.00
17505;BME280;8870;50.950;11.762;2023-05-19T21:04:57;98988.13;;;12.16;100.00
17505;BME280;8870;50.950;11.762;2023-05-19T21:10:16;98992.94;;;12.05;100.00
17505;BME280;8870;50.950;11.762;2023-05-19T21:15:50;98998.22;;;11.96;100.00
17505;BME280;8870;50.950;11.762;2023-05-19T21:21:08;99000.84;;;11.88;100.00
17505;BME280;8870;50.950;11.762;2023-05-19T21:26:42;99004.31;;;11.80;100.00
17505;BME280;8870;50.950;11.762;2023-05-19T21:32:04;99012.19;;;11.74;100.00
17505;BME280;8870;50.950;11.762;2023-05-19T21:37:35;99001.50;;;11.64;100.00
17505;BME280;8870;50.950;11.762;2023-05-19T21:42:53;99001.03;;;11.50;100.00
17505;BME280;8870;50.950;11.762;2023-05-19T21:48:28;99001.06;;;11.40;100.00
17505;BME280;8870;50.950;11.762;2023-05-19T21:53:46;99007.09;;;11.34;100.00
17505;BME280;8870;50.950;11.762;2023-05-19T21:59:18;99001.59;;;11.26;100.00
17505;BME280;8870;50.950;11.762;2023-05-19T22:04:41;98997.09;;;11.17;100.00
17505;BME280;8870;50.950;11.762;2023-05-19T22:10:13;99002.25;;;11.10;100.00
17505;BME280;8870;50.950;11.762;2023-05-19T22:15:31;99010.78;;;11.05;100.00
17505;BME280;8870;50.950;11.762;2023-05-19T22:21:05;99014.09;;;10.99;100.00
17505;BME280;8870;50.950;11.762;2023-05-19T22:26:23;99012.69;;;10.95;100.00
17505;BME280;8870;50.950;11.762;2023-05-19T22:31:57;98997.06;;;10.99;100.00
17505;BME280;8870;50.950;11.762;2023-05-19T22:37:25;98982.13;;;11.04;100.00
17505;BME280;8870;50.950;11.762;2023-05-19T22:42:56;98974.28;;;11.11;100.00
17505;BME280;8870;50.950;11.762;2023-05-19T22:48:14;98976.53;;;11.16;100.00
17505;BME280;8870;50.950;11.762;2023-05-19T22:53:48;98986.84;;;11.20;100.00
17505;BME280;8870;50.950;11.762;2023-05-19T22:59:06;98966.84;;;11.23;100.00
17505;BME280;8870;50.950;11.762;2023-05-19T23:04:38;98979.00;;;11.27;100.00
17505;BME280;8870;50.950;11.762;2023-05-19T23:09:59;98987.09;;;11.27;100.00
17505;BME280;8870;50.950;11.762;2023-05-19T23:15:31;98989.50;;;11.30;100.00
17505;BME280;8870;50.950;11.762;2023-05-19T23:20:50;98982.41;;;11.29;100.00
17505;BME280;8870;50.950;11.762;2023-05-19T23:26:24;98987.50;;;11.32;100.00
17505;BME280;8870;50.950;11.762;2023-05-19T23:31:43;98960.66;;;11.31;100.00
17505;BME280;8870;50.950;11.762;2023-05-19T23:37:14;98948.19;;;11.30;100.00
17505;BME280;8870;50.950;11.762;2023-05-19T23:42:35;98947.19;;;11.31;100.00
17505;BME280;8870;50.950;11.762;2023-05-19T23:48:07;98931.88;;;11.31;100.00
17505;BME280;8870;50.950;11.762;2023-05-19T23:53:25;98938.41;;;11.29;100.00
17505;BME280;8870;50.950;11.762;2023-05-19T23:58:59;98941.94;;;11.29;100.00
